createdAt,value
2022-12-09T00:00:09.298Z,33.37
2022-12-09T00:02:37.672Z,36.10
2022-12-09T00:05:06.705Z,38.00
2022-12-09T00:07:37.612Z,38.90
2022-12-09T00:10:07.375Z,35.67
2022-12-09T00:12:35.893Z,37.57
2022-12-09T00:15:04.467Z,41.47
2022-12-09T00:17:32.524Z,39.97
2022-12-09T00:20:00.699Z,34.83
2022-12-09T00:22:29.463Z,37.33
2022-12-09T00:24:58.898Z,34.47
2022-12-09T00:27:27.256Z,34.60
2022-12-09T00:29:55.298Z,34.23
2022-12-09T00:32:23.679Z,33.90
2022-12-09T00:34:51.825Z,33.80
2022-12-09T00:37:20.156Z,35.37
2022-12-09T00:39:48.404Z,36.10
2022-12-09T00:42:17.821Z,37.13
2022-12-09T00:44:45.878Z,35.03
2022-12-09T00:47:14.076Z,34.73
2022-12-09T00:49:42.362Z,38.80
2022-12-09T00:52:10.433Z,36.43
2022-12-09T00:54:38.547Z,45.23
2022-12-09T00:57:07.187Z,37.33
2022-12-09T00:59:36.607Z,37.90
2022-12-09T01:02:04.696Z,38.73
2022-12-09T01:04:33.189Z,39.50
2022-12-09T01:07:01.988Z,38.43
2022-12-09T01:09:30.187Z,39.90
2022-12-09T01:11:58.495Z,37.60
2022-12-09T01:14:26.555Z,36.07
2022-12-09T01:16:56.438Z,37.73
2022-12-09T01:19:24.635Z,42.20
2022-12-09T01:21:55.522Z,39.97
2022-12-09T01:24:23.757Z,40.10
2022-12-09T01:26:51.891Z,35.37
2022-12-09T01:29:20.131Z,38.70
2022-12-09T01:31:48.330Z,36.13
2022-12-09T01:34:18.139Z,32.17
2022-12-09T01:36:47.872Z,33.67
2022-12-09T01:39:16.780Z,37.10
2022-12-09T01:41:45.860Z,31.67
2022-12-09T01:44:22.599Z,33.30
2022-12-09T01:46:56.812Z,31.13
2022-12-09T01:49:32.332Z,35.20
2022-12-09T01:52:06.931Z,34.23
2022-12-09T01:54:35.856Z,37.10
2022-12-09T01:57:04.200Z,33.73
2022-12-09T01:59:32.839Z,33.87
2022-12-09T02:02:03.406Z,32.57
2022-12-09T02:04:37.899Z,33.53
2022-12-09T02:07:09.977Z,35.77
2022-12-09T02:09:38.227Z,38.83
2022-12-09T02:12:13.455Z,31.07
2022-12-09T02:14:46.128Z,36.37
2022-12-09T02:17:28.920Z,39.27
2022-12-09T02:20:06.158Z,38.53
2022-12-09T02:22:39.770Z,36.73
2022-12-09T02:25:22.581Z,36.93
2022-12-09T02:28:00.915Z,42.27
2022-12-09T02:30:34.610Z,44.30
2022-12-09T02:33:27.560Z,42.87
2022-12-09T02:35:59.798Z,43.47
2022-12-09T02:38:30.121Z,40.63
2022-12-09T02:41:02.264Z,43.73
2022-12-09T02:43:35.694Z,44.17
2022-12-09T02:46:07.260Z,40.50
2022-12-09T02:48:40.329Z,40.23
2022-12-09T02:51:12.388Z,41.40
2022-12-09T02:53:41.515Z,38.73
2022-12-09T02:56:10.530Z,36.60
2022-12-09T02:58:38.667Z,37.13
2022-12-09T03:06:44.981Z,32.37
2022-12-09T03:09:17.880Z,32.90
2022-12-09T03:11:48.809Z,32.63
2022-12-09T03:14:22.625Z,32.33
2022-12-09T03:16:55.389Z,35.27
2022-12-09T03:19:29.137Z,34.57
2022-12-09T03:22:02.333Z,37.37
2022-12-09T03:24:34.175Z,41.97
2022-12-09T03:27:07.055Z,37.77
2022-12-09T03:29:39.387Z,43.70
2022-12-09T03:32:09.104Z,33.63
2022-12-09T03:34:42.585Z,36.23
2022-12-09T03:37:16.063Z,39.63
2022-12-09T03:39:45.662Z,39.07
2022-12-09T03:42:20.123Z,39.70
2022-12-09T03:44:52.380Z,41.20
2022-12-09T03:47:21.139Z,39.97
2022-12-09T03:49:49.609Z,39.90
2022-12-09T03:52:23.965Z,42.63
2022-12-09T03:54:57.671Z,40.57
2022-12-09T03:57:26.669Z,38.27
2022-12-09T03:59:59.365Z,39.57
2022-12-09T04:02:28.350Z,37.73
2022-12-09T04:04:57.017Z,39.10
2022-12-09T04:07:26.684Z,39.90
2022-12-09T04:09:54.843Z,36.77
2022-12-09T04:12:23.068Z,42.90
2022-12-09T04:14:51.329Z,40.37
2022-12-09T04:17:19.650Z,40.73
2022-12-09T04:19:48.017Z,44.60
2022-12-09T04:22:16.344Z,37.43
2022-12-09T04:24:45.841Z,37.40
2022-12-09T04:27:13.978Z,40.37
2022-12-09T04:29:42.276Z,38.83
2022-12-09T04:32:10.541Z,43.93
2022-12-09T04:34:38.760Z,38.10
2022-12-09T04:37:06.813Z,40.33
2022-12-09T04:39:34.894Z,36.23
2022-12-09T04:42:04.603Z,36.00
2022-12-09T04:44:32.816Z,39.93
2022-12-09T04:47:01.273Z,37.37
2022-12-09T04:49:29.597Z,33.70
2022-12-09T04:51:58.186Z,35.50
2022-12-09T04:54:26.712Z,35.20
2022-12-09T04:56:54.916Z,32.00
2022-12-09T04:59:24.456Z,33.20
2022-12-09T05:01:52.853Z,38.27
2022-12-09T05:04:21.572Z,30.37
2022-12-09T05:06:50.116Z,35.10
2022-12-09T05:09:19.711Z,33.70
2022-12-09T05:11:47.965Z,37.43
2022-12-09T05:14:16.450Z,34.03
2022-12-09T05:16:46.179Z,29.93
2022-12-09T05:19:14.460Z,30.93
2022-12-09T05:21:44.110Z,34.60
2022-12-09T05:24:12.428Z,29.30
2022-12-09T05:26:41.078Z,32.53
2022-12-09T05:29:09.307Z,35.73
2022-12-09T05:31:37.828Z,38.03
2022-12-09T05:34:07.740Z,37.23
2022-12-09T05:36:36.053Z,31.53
2022-12-09T05:39:04.922Z,37.70
2022-12-09T05:41:33.157Z,42.57
2022-12-09T05:44:01.647Z,34.87
2022-12-09T05:46:29.854Z,34.07
2022-12-09T05:48:58.433Z,36.70
2022-12-09T05:51:30.039Z,34.77
2022-12-09T05:54:01.859Z,40.13
2022-12-09T05:56:30.332Z,40.23
2022-12-09T05:58:59.639Z,35.23
2022-12-09T06:01:28.666Z,33.43
2022-12-09T06:03:57.865Z,31.20
2022-12-09T06:06:30.301Z,34.50
2022-12-09T06:09:00.865Z,37.97
2022-12-09T06:11:30.091Z,36.80
2022-12-09T06:13:58.890Z,36.97
2022-12-09T06:16:27.700Z,36.93
2022-12-09T06:18:56.912Z,35.17
2022-12-09T06:21:25.510Z,33.63
2022-12-09T06:23:55.547Z,35.43
2022-12-09T06:26:25.306Z,37.30
2022-12-09T06:28:54.242Z,36.07
2022-12-09T06:31:23.077Z,33.33
2022-12-09T06:33:57.118Z,31.37
2022-12-09T06:36:27.010Z,32.47
2022-12-09T06:39:00.391Z,37.93
2022-12-09T06:41:31.576Z,34.40
2022-12-09T06:44:00.188Z,32.63
2022-12-09T06:46:29.527Z,35.00
2022-12-09T06:48:58.102Z,31.77
2022-12-09T06:51:27.610Z,33.57
2022-12-09T06:53:57.378Z,30.83
2022-12-09T06:56:25.649Z,33.07
2022-12-09T06:58:54.129Z,34.23
2022-12-09T07:01:24.300Z,33.70
2022-12-09T07:03:54.490Z,31.60
2022-12-09T07:06:27.746Z,36.40
2022-12-09T07:08:59.112Z,37.20
2022-12-09T07:11:27.476Z,38.67
2022-12-09T07:13:56.204Z,40.23
2022-12-09T07:16:25.051Z,44.70
2022-12-09T07:18:54.020Z,39.30
2022-12-09T07:21:24.042Z,41.07
2022-12-09T07:23:52.730Z,37.87
2022-12-09T07:26:22.794Z,40.70
2022-12-09T07:28:51.448Z,44.37
2022-12-09T07:31:21.570Z,44.53
2022-12-09T07:37:41.247Z,45.73
2022-12-09T07:40:09.962Z,42.40
2022-12-09T07:42:39.788Z,47.03
2022-12-09T07:45:09.464Z,42.87
2022-12-09T07:47:38.388Z,48.50
2022-12-09T07:50:08.424Z,45.07
2022-12-09T07:52:36.621Z,41.70
2022-12-09T07:55:06.735Z,36.87
2022-12-09T07:57:38.469Z,41.70
2022-12-09T08:00:10.080Z,42.07
2022-12-09T08:02:38.527Z,47.33
2022-12-09T08:05:08.107Z,41.57
2022-12-09T08:07:43.669Z,48.63
2022-12-09T08:10:13.112Z,39.67
2022-12-09T08:12:41.795Z,45.87
2022-12-09T08:15:12.938Z,48.07
2022-12-09T08:17:41.462Z,37.50
2022-12-09T08:20:11.138Z,34.20
2022-12-09T08:22:39.778Z,42.70
2022-12-09T08:25:08.931Z,36.57
2022-12-09T08:27:38.133Z,45.80
2022-12-09T08:30:08.378Z,41.60
2022-12-09T08:32:38.613Z,45.60
2022-12-09T08:35:08.176Z,40.33
2022-12-09T08:37:36.486Z,47.47
2022-12-09T08:40:05.065Z,36.43
2022-12-09T08:42:33.475Z,40.43
2022-12-09T08:45:02.955Z,44.90
2022-12-09T08:47:31.446Z,40.40
2022-12-09T08:50:01.197Z,41.93
2022-12-09T08:52:31.457Z,33.57
2022-12-09T08:55:01.450Z,28.80
2022-12-09T08:57:29.608Z,34.47
2022-12-09T08:59:57.868Z,31.97
2022-12-09T09:02:26.396Z,35.83
2022-12-09T09:04:54.754Z,39.33
2022-12-09T09:07:24.755Z,36.27
2022-12-09T09:09:53.289Z,36.70
2022-12-09T09:12:22.139Z,35.07
2022-12-09T09:14:50.371Z,34.27
2022-12-09T09:17:18.817Z,32.00
2022-12-09T09:19:47.182Z,28.50
2022-12-09T09:22:15.735Z,27.20
2022-12-09T09:24:45.602Z,28.40
2022-12-09T09:27:14.076Z,25.30
2022-12-09T09:29:42.551Z,29.50
2022-12-09T09:32:10.838Z,27.90
2022-12-09T09:34:39.315Z,26.00
2022-12-09T09:37:07.584Z,26.47
2022-12-09T09:39:35.657Z,25.10
2022-12-09T09:42:09.544Z,26.40
2022-12-09T09:44:41.151Z,30.47
2022-12-09T09:47:18.051Z,29.83
2022-12-09T09:49:54.278Z,30.30
2022-12-09T09:52:24.720Z,30.13
2022-12-09T09:54:53.409Z,27.97
2022-12-09T09:57:29.132Z,28.23
2022-12-09T10:00:14.092Z,26.83
2022-12-09T10:02:58.281Z,29.30
2022-12-09T10:05:31.692Z,28.10
2022-12-09T10:08:14.480Z,29.37
2022-12-09T10:10:48.410Z,30.03
2022-12-09T10:13:31.151Z,28.23
2022-12-09T10:16:07.373Z,27.67
2022-12-09T10:18:40.540Z,25.47
2022-12-09T10:21:17.206Z,23.93
2022-12-09T10:23:47.155Z,33.83
2022-12-09T10:26:23.761Z,23.33
2022-12-09T10:28:59.417Z,24.47
2022-12-09T10:31:29.739Z,26.93
2022-12-09T10:33:58.145Z,28.83
2022-12-09T10:36:33.981Z,22.93
2022-12-09T10:39:05.332Z,25.43
2022-12-09T10:42:01.447Z,25.63
2022-12-09T10:44:31.357Z,25.47
2022-12-09T10:47:02.338Z,31.67
2022-12-09T10:49:31.532Z,26.93
2022-12-09T10:52:00.795Z,31.43
2022-12-09T10:54:35.187Z,28.93
2022-12-09T10:57:09.673Z,29.27
2022-12-09T10:59:40.810Z,27.17
2022-12-09T11:02:21.929Z,27.20
2022-12-09T11:04:51.327Z,24.13
2022-12-09T11:07:22.921Z,27.57
2022-12-09T11:10:04.159Z,25.70
2022-12-09T11:12:40.422Z,26.70
2022-12-09T11:15:27.974Z,21.27
2022-12-09T11:18:01.540Z,26.20
2022-12-09T11:20:31.707Z,25.03
2022-12-09T11:23:07.457Z,20.53
2022-12-09T11:25:37.879Z,24.47
2022-12-09T11:28:23.020Z,23.93
2022-12-09T11:31:20.448Z,23.43
2022-12-09T11:33:52.481Z,27.40
2022-12-09T11:36:24.505Z,23.67
2022-12-09T11:38:55.287Z,24.50
2022-12-09T11:41:42.849Z,23.57
2022-12-09T11:44:25.789Z,24.80
2022-12-09T11:47:01.409Z,20.30
2022-12-09T11:49:32.043Z,24.47
2022-12-09T11:52:03.936Z,25.53
2022-12-09T11:54:37.200Z,24.63
2022-12-09T11:57:07.853Z,24.47
2022-12-09T11:59:42.992Z,22.63
2022-12-09T12:02:23.258Z,21.93
2022-12-09T12:04:57.082Z,23.27
2022-12-09T12:07:33.576Z,25.07
2022-12-09T12:10:02.452Z,25.87
2022-12-09T12:12:37.728Z,25.53
2022-12-09T12:15:14.982Z,25.13
2022-12-09T12:17:50.837Z,21.10
2022-12-09T12:20:19.216Z,22.80
2022-12-09T12:23:10.656Z,24.00
2022-12-09T12:25:53.730Z,18.53
2022-12-09T12:28:59.007Z,22.53
2022-12-09T12:31:42.151Z,20.77
2022-12-09T12:34:25.351Z,22.60
2022-12-09T12:37:07.694Z,24.57
2022-12-09T12:39:49.018Z,22.43
2022-12-09T12:42:32.944Z,23.50
2022-12-09T12:45:23.661Z,20.20
2022-12-09T12:47:58.117Z,24.20
2022-12-09T12:50:39.899Z,21.43
2022-12-09T12:53:18.437Z,20.47
2022-12-09T12:55:54.961Z,21.77
2022-12-09T12:58:36.973Z,22.67
2022-12-09T13:01:12.905Z,24.57
2022-12-09T13:03:48.909Z,25.07
2022-12-09T13:06:22.237Z,21.53
2022-12-09T13:09:01.358Z,21.80
2022-12-09T13:11:38.624Z,21.30
2022-12-09T13:14:12.685Z,22.30
2022-12-09T13:16:42.333Z,20.73
2022-12-09T13:19:17.541Z,22.50
2022-12-09T13:21:47.508Z,20.83
2022-12-09T13:24:26.811Z,18.53
2022-12-09T13:27:01.234Z,18.67
2022-12-09T13:29:38.026Z,25.80
2022-12-09T13:32:18.771Z,23.13
2022-12-09T13:34:51.537Z,19.63
2022-12-09T13:37:58.317Z,25.20
2022-12-09T13:40:38.976Z,22.73
2022-12-09T13:43:24.751Z,24.80
2022-12-09T13:45:56.021Z,21.67
2022-12-09T13:48:44.911Z,23.87
2022-12-09T13:51:13.916Z,26.70
2022-12-09T13:53:49.647Z,21.93
2022-12-09T13:56:27.315Z,23.13
2022-12-09T13:59:21.678Z,34.23
2022-12-09T14:01:52.540Z,24.43
2022-12-09T14:04:26.842Z,21.00
2022-12-09T14:07:09.716Z,22.70
2022-12-09T14:09:48.294Z,23.93
2022-12-09T14:12:55.112Z,22.00
2022-12-09T14:15:39.058Z,20.27
2022-12-09T14:18:28.556Z,22.63
2022-12-09T14:21:39.315Z,23.83
2022-12-09T14:24:32.517Z,20.27
2022-12-09T14:27:13.770Z,20.47
2022-12-09T14:29:54.564Z,19.30
2022-12-09T14:32:30.709Z,20.90
2022-12-09T14:35:22.411Z,21.10
2022-12-09T14:38:13.991Z,19.97
2022-12-09T14:40:55.936Z,18.20
2022-12-09T14:44:02.811Z,20.57
2022-12-09T14:46:34.027Z,20.83
2022-12-09T14:49:05.975Z,20.00
2022-12-09T14:51:37.697Z,20.50
2022-12-09T14:54:09.154Z,19.20
2022-12-09T14:56:37.521Z,18.53
2022-12-09T14:59:10.161Z,20.97
2022-12-09T15:01:56.131Z,19.97
2022-12-09T15:04:29.975Z,17.43
2022-12-09T15:07:12.206Z,18.93
2022-12-09T15:09:48.230Z,19.30
2022-12-09T15:12:16.886Z,20.00
2022-12-09T15:14:45.840Z,17.13
2022-12-09T15:17:26.265Z,20.50
2022-12-09T15:20:02.015Z,20.43
2022-12-09T15:22:32.771Z,20.03
2022-12-09T15:25:02.387Z,21.77
2022-12-09T15:27:31.503Z,19.17
2022-12-09T15:29:59.745Z,24.17
2022-12-09T15:32:30.825Z,22.50
2022-12-09T15:35:16.174Z,28.90
2022-12-09T15:37:44.772Z,20.10
2022-12-09T15:40:16.970Z,21.87
2022-12-09T15:42:46.999Z,18.57
2022-12-09T15:45:20.538Z,23.43
2022-12-09T15:47:55.545Z,20.80
2022-12-09T15:50:27.096Z,18.37
2022-12-09T15:53:01.121Z,17.80
2022-12-09T15:55:33.699Z,21.37
2022-12-09T15:58:04.151Z,20.33
2022-12-09T16:00:32.335Z,17.77
2022-12-09T16:03:01.923Z,20.93
2022-12-09T16:05:30.082Z,22.63
2022-12-09T16:07:59.970Z,24.47
2022-12-09T16:10:29.055Z,23.23
2022-12-09T16:13:08.989Z,23.23
2022-12-09T16:15:53.240Z,22.67
2022-12-09T16:18:25.781Z,24.27
2022-12-09T16:21:16.588Z,49.50
2022-12-09T16:23:48.126Z,60.77
2022-12-09T16:26:19.070Z,54.87
2022-12-09T16:28:55.629Z,54.90
2022-12-09T16:31:23.837Z,47.73
2022-12-09T16:33:53.524Z,42.20
2022-12-09T16:36:25.590Z,30.13
2022-12-09T16:39:34.487Z,30.20
2022-12-09T16:42:03.580Z,29.43
2022-12-09T16:44:34.883Z,33.33
2022-12-09T16:47:14.515Z,30.23
2022-12-09T16:49:46.928Z,32.57
2022-12-09T16:52:17.494Z,33.43
2022-12-09T16:54:47.686Z,29.07
2022-12-09T16:57:17.878Z,36.03
2022-12-09T16:59:46.318Z,29.40
2022-12-09T17:02:20.064Z,29.97
2022-12-09T17:04:50.138Z,30.03
2022-12-09T17:07:18.217Z,34.00
2022-12-09T17:09:46.399Z,32.10
2022-12-09T17:12:14.606Z,29.23
2022-12-09T17:14:42.925Z,29.40
2022-12-09T17:17:10.972Z,89.30
2022-12-09T17:19:41.239Z,33.57
2022-12-09T17:22:10.892Z,30.80
2022-12-09T17:24:39.705Z,32.53
2022-12-09T17:27:07.904Z,30.37
2022-12-09T17:29:36.850Z,33.20
2022-12-09T17:32:05.357Z,30.93
2022-12-09T17:34:33.587Z,31.27
2022-12-09T17:37:01.686Z,29.33
2022-12-09T17:39:31.252Z,39.13
2022-12-09T17:41:59.457Z,36.30
2022-12-09T17:44:27.605Z,34.20
2022-12-09T17:46:56.646Z,40.40
2022-12-09T17:49:24.824Z,30.43
2022-12-09T17:51:53.098Z,35.67
2022-12-09T17:54:21.386Z,36.53
2022-12-09T17:56:50.984Z,36.10
2022-12-09T17:59:19.094Z,32.23
2022-12-09T18:01:47.442Z,37.90
2022-12-09T18:04:16.217Z,37.97
2022-12-09T18:06:45.709Z,41.83
2022-12-09T18:09:15.904Z,38.23
2022-12-09T18:11:44.642Z,38.60
2022-12-09T18:14:14.598Z,39.13
2022-12-09T18:16:43.267Z,42.03
2022-12-09T18:19:15.415Z,44.93
2022-12-09T18:21:43.820Z,39.20
2022-12-09T18:24:12.281Z,38.37
2022-12-09T18:26:42.292Z,38.50
2022-12-09T18:29:11.651Z,41.50
2022-12-09T18:31:43.204Z,40.93
2022-12-09T18:34:11.262Z,48.27
2022-12-09T18:36:39.433Z,52.70
2022-12-09T18:39:07.912Z,47.17
2022-12-09T18:41:36.068Z,51.80
2022-12-09T18:44:07.629Z,58.07
2022-12-09T18:46:37.580Z,58.67
2022-12-09T18:49:18.507Z,40.07
2022-12-09T18:51:47.651Z,41.07
2022-12-09T18:54:18.497Z,46.77
2022-12-09T18:56:47.002Z,43.40
2022-12-09T18:59:15.063Z,44.20
2022-12-09T19:01:46.067Z,40.87
2022-12-09T19:04:17.826Z,37.80
2022-12-09T19:06:49.568Z,41.67
2022-12-09T19:09:19.294Z,49.33
2022-12-09T19:11:48.875Z,52.10
2022-12-09T19:14:18.680Z,42.37
2022-12-09T19:16:47.414Z,43.93
2022-12-09T19:19:18.819Z,40.00
2022-12-09T19:21:47.788Z,39.43
2022-12-09T19:24:19.068Z,46.23
2022-12-09T19:26:47.517Z,44.70
2022-12-09T19:29:17.703Z,42.57
2022-12-09T19:31:47.465Z,39.13
2022-12-09T19:34:21.078Z,39.40
2022-12-09T19:36:50.558Z,46.10
2022-12-09T19:39:20.582Z,37.37
2022-12-09T19:41:49.049Z,40.97
2022-12-09T19:44:37.073Z,37.13
2022-12-09T19:47:07.871Z,37.27
2022-12-09T19:49:37.735Z,43.30
2022-12-09T19:52:07.469Z,39.10
2022-12-09T19:54:35.576Z,41.83
2022-12-09T19:57:03.846Z,46.63
2022-12-09T19:59:32.121Z,41.37
2022-12-09T20:06:09.278Z,42.30
2022-12-09T20:08:37.806Z,40.43
2022-12-09T20:11:07.028Z,48.30
2022-12-09T20:25:28.018Z,41.40
2022-12-09T20:27:56.224Z,46.50
2022-12-09T20:30:24.267Z,45.20
2022-12-09T20:32:52.330Z,48.17
2022-12-09T20:35:20.440Z,49.37
2022-12-09T20:37:48.755Z,41.57
2022-12-09T20:40:16.956Z,47.40
2022-12-09T20:42:46.374Z,43.03
2022-12-09T20:45:14.422Z,40.80
2022-12-09T20:47:42.557Z,44.70
2022-12-09T20:50:11.231Z,46.67
2022-12-09T20:52:39.628Z,44.50
2022-12-09T20:55:08.654Z,39.07
2022-12-09T20:57:36.716Z,40.00
2022-12-09T21:00:07.347Z,46.83
2022-12-09T21:02:39.738Z,49.47
2022-12-09T21:05:09.456Z,46.97
2022-12-09T21:07:37.631Z,46.27
2022-12-09T21:10:10.020Z,46.00
2022-12-09T21:12:38.283Z,52.67
2022-12-09T21:15:09.019Z,55.27
2022-12-09T21:17:37.046Z,46.90
2022-12-09T21:20:09.381Z,45.43
2022-12-09T21:22:40.402Z,47.37
2022-12-09T21:25:09.713Z,42.10
2022-12-09T21:27:39.975Z,45.03
2022-12-09T21:30:10.974Z,40.03
2022-12-09T21:32:39.932Z,44.50
2022-12-09T21:35:08.983Z,45.70
2022-12-09T21:37:37.204Z,47.43
2022-12-09T21:40:07.484Z,43.20
2022-12-09T21:42:35.804Z,45.57
2022-12-09T21:45:03.962Z,49.40
2022-12-09T21:47:33.555Z,44.30
2022-12-09T21:50:01.630Z,44.77
2022-12-09T21:52:29.639Z,43.37
2022-12-09T21:54:58.126Z,43.60
2022-12-09T21:57:26.243Z,55.80
2022-12-09T21:59:54.523Z,44.23
2022-12-09T22:02:22.620Z,47.50
2022-12-09T22:04:52.082Z,51.17
2022-12-09T22:07:20.163Z,43.33
2022-12-09T22:09:49.754Z,45.63
2022-12-09T22:12:17.790Z,45.27
2022-12-09T22:14:45.983Z,43.90
2022-12-09T22:21:25.142Z,42.43
2022-12-09T22:23:54.906Z,44.00
2022-12-09T22:26:23.578Z,41.70
2022-12-09T22:28:52.458Z,44.93
2022-12-09T22:31:22.482Z,44.37
2022-12-09T22:33:52.361Z,45.70
2022-12-09T22:36:22.849Z,41.97
2022-12-09T22:38:51.285Z,43.00
2022-12-09T22:41:22.073Z,46.13
2022-12-09T22:43:50.736Z,49.03
2022-12-09T22:46:20.862Z,45.73
2022-12-09T22:48:49.959Z,43.53
2022-12-09T22:51:20.864Z,45.37
2022-12-09T22:53:51.369Z,45.97
2022-12-09T22:56:19.984Z,46.03
2022-12-09T22:58:48.232Z,46.47
2022-12-09T23:01:18.540Z,46.50
2022-12-09T23:03:47.039Z,44.30
2022-12-09T23:06:15.554Z,42.43
2022-12-09T23:08:45.631Z,48.50
2022-12-09T23:11:16.763Z,45.77
2022-12-09T23:13:45.332Z,40.77
2022-12-09T23:16:15.787Z,47.63
2022-12-09T23:18:46.014Z,49.97
2022-12-09T23:21:16.457Z,51.87
2022-12-09T23:23:44.937Z,46.90
2022-12-09T23:26:19.427Z,51.50
2022-12-09T23:28:49.269Z,43.50
2022-12-09T23:31:20.376Z,49.17
2022-12-09T23:33:49.957Z,49.47
2022-12-09T23:36:20.701Z,46.63
2022-12-09T23:38:49.281Z,50.50
2022-12-09T23:41:20.668Z,45.80
2022-12-09T23:43:49.892Z,48.03
2022-12-09T23:46:20.163Z,50.07
2022-12-09T23:48:49.547Z,47.00
2022-12-09T23:51:19.083Z,49.60
2022-12-09T23:53:49.389Z,49.43
2022-12-09T23:56:20.465Z,44.80
2022-12-09T23:58:49.393Z,46.00
